createdAt,value
2018-05-09T00:00:32.686Z,34.80
2018-05-09T00:03:00.090Z,32.10
2018-05-09T00:05:27.534Z,33.90
2018-05-09T00:10:23.494Z,34.70
2018-05-09T00:12:51.767Z,34.60
2018-05-09T00:15:19.179Z,31.90
2018-05-09T00:20:14.839Z,32.00
2018-05-09T00:22:42.207Z,32.90
2018-05-09T00:27:38.826Z,36.60
2018-05-09T00:30:06.235Z,35.50
2018-05-09T00:39:59.473Z,33.40
2018-05-09T00:42:26.873Z,31.40
2018-05-09T00:44:54.963Z,33.50
2018-05-09T00:47:22.421Z,33.10
2018-05-09T00:52:18.174Z,33.10
2018-05-09T00:57:13.854Z,34.60
2018-05-09T00:59:41.272Z,35.70
2018-05-09T01:02:08.630Z,32.30
2018-05-09T01:04:36.002Z,32.10
2018-05-09T01:07:03.411Z,33.40
2018-05-09T01:14:27.485Z,34.40
2018-05-09T01:16:55.609Z,35.30
2018-05-09T01:21:52.050Z,36.10
2018-05-09T01:26:48.437Z,34.70
2018-05-09T01:29:15.791Z,33.30
2018-05-09T01:31:43.268Z,34.10
2018-05-09T01:34:10.593Z,34.60
2018-05-09T01:36:38.746Z,35.10
2018-05-09T01:39:06.871Z,33.60
2018-05-09T01:41:35.059Z,34.30
2018-05-09T01:44:02.443Z,35.40
2018-05-09T01:46:29.836Z,36.60
2018-05-09T01:48:57.285Z,36.20
2018-05-09T01:51:24.662Z,36.30
2018-05-09T01:56:21.234Z,36.70
2018-05-09T01:58:49.422Z,36.40
2018-05-09T02:01:16.775Z,35.70
2018-05-09T02:03:44.301Z,33.50
2018-05-09T02:11:08.494Z,36.40
2018-05-09T02:13:36.638Z,36.80
2018-05-09T02:16:04.740Z,35.30
2018-05-09T02:18:32.160Z,34.60
2018-05-09T02:20:59.587Z,35.80
2018-05-09T02:25:56.090Z,36.60
2018-05-09T02:28:23.714Z,36.90
2018-05-09T02:30:51.114Z,36.40
2018-05-09T02:33:18.530Z,34.20
2018-05-09T02:35:46.827Z,33.70
2018-05-09T02:38:14.231Z,34.00
2018-05-09T02:40:41.967Z,37.30
2018-05-09T02:43:09.455Z,36.40
2018-05-09T02:45:36.802Z,34.60
2018-05-09T02:53:01.859Z,35.40
2018-05-09T02:55:29.881Z,35.30
2018-05-09T02:57:57.335Z,35.20
2018-05-09T03:00:24.789Z,35.10
2018-05-09T03:02:52.189Z,35.40
2018-05-09T03:05:20.421Z,34.60
2018-05-09T03:07:48.023Z,34.70
2018-05-09T03:12:43.694Z,35.20
2018-05-09T03:15:11.178Z,35.70
2018-05-09T03:17:38.596Z,36.20
2018-05-09T03:22:35.095Z,37.50
2018-05-09T03:25:02.429Z,36.30
2018-05-09T03:27:29.880Z,35.30
2018-05-09T03:32:26.428Z,35.30
2018-05-09T03:34:53.845Z,32.80
2018-05-09T03:39:50.353Z,36.30
2018-05-09T03:44:47.157Z,36.80
2018-05-09T03:49:43.374Z,35.90
2018-05-09T03:52:10.928Z,37.50
2018-05-09T03:54:38.338Z,37.90
2018-05-09T03:57:05.839Z,37.50
2018-05-09T04:02:14.599Z,39.20
2018-05-09T04:04:54.295Z,40.40
2018-05-09T04:07:33.775Z,40.50
2018-05-09T04:10:01.412Z,42.90
2018-05-09T04:12:28.851Z,41.30
2018-05-09T04:14:57.160Z,40.10
2018-05-09T04:17:24.523Z,36.50
2018-05-09T04:19:52.038Z,36.30
2018-05-09T04:24:47.963Z,37.10
2018-05-09T04:27:15.412Z,37.40
2018-05-09T04:29:42.807Z,38.60
2018-05-09T04:32:10.237Z,39.50
2018-05-09T04:34:37.755Z,41.00
2018-05-09T04:37:05.316Z,41.30
2018-05-09T04:42:02.148Z,41.70
2018-05-09T04:44:29.589Z,41.10
2018-05-09T04:49:25.544Z,39.30
2018-05-09T04:51:52.914Z,39.20
2018-05-09T04:54:20.364Z,38.40
2018-05-09T04:56:47.761Z,38.30
2018-05-09T04:59:15.188Z,38.00
2018-05-09T05:01:43.348Z,37.80
2018-05-09T05:04:10.841Z,37.00
2018-05-09T05:06:38.240Z,37.20
2018-05-09T05:11:34.870Z,34.40
2018-05-09T05:14:02.357Z,34.40
2018-05-09T05:16:29.783Z,34.80
2018-05-09T05:18:57.996Z,35.10
2018-05-09T05:21:25.406Z,36.50
2018-05-09T05:23:52.803Z,38.10
2018-05-09T05:28:48.578Z,35.30
2018-05-09T05:31:16.183Z,38.30
2018-05-09T05:33:43.651Z,38.80
2018-05-09T05:36:11.084Z,38.50
2018-05-09T05:38:39.268Z,37.50
2018-05-09T05:41:07.584Z,36.40
2018-05-09T05:43:34.977Z,36.10
2018-05-09T05:46:02.389Z,35.80
2018-05-09T05:48:30.629Z,34.90
2018-05-09T05:50:58.286Z,33.60
2018-05-09T05:53:25.789Z,34.20
2018-05-09T05:55:54.084Z,34.10
2018-05-09T05:58:22.252Z,37.10
2018-05-09T06:00:50.402Z,37.80
2018-05-09T06:05:46.830Z,35.70
2018-05-09T06:08:14.282Z,35.70
2018-05-09T06:10:41.764Z,35.60
2018-05-09T06:13:09.174Z,35.30
2018-05-09T06:15:37.380Z,34.60
2018-05-09T06:18:04.734Z,34.70
2018-05-09T06:23:01.337Z,34.00
2018-05-09T06:25:29.512Z,35.20
2018-05-09T06:27:56.942Z,34.60
2018-05-09T06:30:25.080Z,34.00
2018-05-09T06:32:53.351Z,34.10
2018-05-09T06:35:20.691Z,33.70
2018-05-09T06:40:17.291Z,32.70
2018-05-09T06:42:44.925Z,33.20
2018-05-09T06:45:12.281Z,33.10
2018-05-09T06:47:39.738Z,33.20
2018-05-09T06:52:36.323Z,32.70
2018-05-09T06:55:03.785Z,32.60
2018-05-09T07:00:00.342Z,32.70
2018-05-09T07:02:28.489Z,31.90
2018-05-09T07:09:52.530Z,31.30
2018-05-09T07:12:20.645Z,31.80
2018-05-09T07:14:48.074Z,31.40
2018-05-09T07:17:16.249Z,31.80
2018-05-09T07:19:43.739Z,31.70
2018-05-09T07:22:11.200Z,30.90
2018-05-09T07:24:38.698Z,31.90
2018-05-09T07:27:06.071Z,31.80
2018-05-09T07:32:01.767Z,31.20
2018-05-09T07:34:29.918Z,32.50
2018-05-09T07:39:25.774Z,31.20
2018-05-09T07:41:53.139Z,30.70
2018-05-09T07:46:49.704Z,31.10
2018-05-09T07:49:17.073Z,31.30
2018-05-09T07:51:44.697Z,29.70
2018-05-09T07:54:12.182Z,30.30
2018-05-09T07:56:39.567Z,30.70
2018-05-09T07:59:07.750Z,31.50
2018-05-09T08:01:35.191Z,31.50
2018-05-09T08:04:02.539Z,29.50
2018-05-09T08:08:59.222Z,30.00
2018-05-09T08:11:26.662Z,29.30
2018-05-09T08:13:54.022Z,28.80
2018-05-09T08:18:50.483Z,30.30
2018-05-09T08:21:17.895Z,31.20
2018-05-09T08:23:45.334Z,30.20
2018-05-09T08:31:09.386Z,28.60
2018-05-09T08:33:36.787Z,29.50
2018-05-09T08:40:59.388Z,29.20
2018-05-09T08:45:56.034Z,28.70
2018-05-09T08:48:23.482Z,28.30
2018-05-09T08:50:51.786Z,27.30
2018-05-09T08:53:19.175Z,27.90
2018-05-09T08:55:46.586Z,27.50
2018-05-09T08:58:13.978Z,28.30
2018-05-09T09:00:41.419Z,28.40
2018-05-09T09:03:08.860Z,28.40
2018-05-09T09:05:36.363Z,28.00
2018-05-09T09:08:03.799Z,27.00
2018-05-09T09:10:31.208Z,27.30
2018-05-09T09:12:58.742Z,27.00
2018-05-09T09:15:26.295Z,27.90
2018-05-09T09:20:22.626Z,27.00
2018-05-09T09:25:18.371Z,28.20
2018-05-09T09:27:45.824Z,27.10
2018-05-09T09:30:14.014Z,26.10
2018-05-09T09:32:41.415Z,26.30
2018-05-09T09:35:09.597Z,26.40
2018-05-09T09:42:33.686Z,27.30
2018-05-09T09:45:01.944Z,27.00
2018-05-09T09:47:30.027Z,27.10
2018-05-09T09:49:58.119Z,27.80
2018-05-09T09:54:54.622Z,28.10
2018-05-09T09:57:22.096Z,27.70
2018-05-09T09:59:49.558Z,27.20
2018-05-09T10:02:16.914Z,27.60
2018-05-09T10:04:44.426Z,27.20
2018-05-09T10:09:40.923Z,27.50
2018-05-09T10:12:08.352Z,27.50
2018-05-09T10:17:04.862Z,26.50
2018-05-09T10:19:32.194Z,25.70
2018-05-09T10:24:27.926Z,25.80
2018-05-09T10:26:55.432Z,26.30
2018-05-09T10:39:17.004Z,28.10
2018-05-09T10:41:44.412Z,28.40
2018-05-09T10:44:11.979Z,27.80
2018-05-09T10:46:39.354Z,27.00
2018-05-09T10:49:06.782Z,26.10
2018-05-09T10:51:34.246Z,25.60
2018-05-09T10:54:01.654Z,25.20
2018-05-09T10:58:57.342Z,25.70
2018-05-09T11:01:24.580Z,26.40
2018-05-09T11:03:52.627Z,26.90
2018-05-09T11:06:20.054Z,27.50
2018-05-09T11:11:15.902Z,26.80
2018-05-09T11:16:11.672Z,25.10
2018-05-09T11:18:39.818Z,24.40
2018-05-09T11:21:08.004Z,23.30
2018-05-09T11:26:04.066Z,21.40
2018-05-09T11:28:31.443Z,23.50
2018-05-09T11:30:59.877Z,24.80
2018-05-09T11:33:27.971Z,24.90
2018-05-09T11:35:56.148Z,25.10
2018-05-09T11:38:23.587Z,26.30
2018-05-09T11:40:50.964Z,26.20
2018-05-09T11:43:18.348Z,25.60
2018-05-09T11:48:19.949Z,24.60
2018-05-09T11:50:48.599Z,24.20
2018-05-09T11:53:19.630Z,24.40
2018-05-09T11:55:47.759Z,24.40
2018-05-09T11:58:21.522Z,25.00
2018-05-09T12:00:48.962Z,26.70
2018-05-09T12:03:17.520Z,26.60
2018-05-09T12:08:13.283Z,25.00
2018-05-09T12:10:41.621Z,24.10
2018-05-09T12:15:37.202Z,27.10
2018-05-09T12:20:33.654Z,28.90
2018-05-09T12:25:29.441Z,29.80
2018-05-09T12:27:56.831Z,30.00
2018-05-09T12:30:24.280Z,30.00
2018-05-09T12:32:51.769Z,30.20
2018-05-09T12:35:19.291Z,30.30
2018-05-09T12:37:46.733Z,30.30
2018-05-09T12:40:14.839Z,29.90
2018-05-09T12:42:42.419Z,29.70
2018-05-09T12:45:10.554Z,29.20
2018-05-09T12:47:38.718Z,28.60
2018-05-09T12:50:06.168Z,28.60
2018-05-09T12:52:33.575Z,28.70
2018-05-09T12:55:01.059Z,28.90
2018-05-09T12:57:28.485Z,29.20
2018-05-09T12:59:55.945Z,29.00
2018-05-09T13:02:23.483Z,28.40
2018-05-09T13:04:51.041Z,27.80
2018-05-09T13:07:18.531Z,27.60
2018-05-09T13:09:46.719Z,27.50
2018-05-09T13:14:42.567Z,27.40
2018-05-09T13:17:09.951Z,27.50
2018-05-09T13:19:37.400Z,27.80
2018-05-09T13:22:04.859Z,27.90
2018-05-09T13:24:32.258Z,27.50
2018-05-09T13:26:59.762Z,27.30
2018-05-09T13:29:27.165Z,26.90
2018-05-09T13:31:54.539Z,27.20
2018-05-09T13:34:21.916Z,27.20
2018-05-09T13:36:49.288Z,26.80
2018-05-09T13:39:16.630Z,27.30
2018-05-09T13:41:44.051Z,28.20
2018-05-09T13:44:12.103Z,28.90
2018-05-09T13:49:07.814Z,28.80
2018-05-09T13:51:35.226Z,28.20
2018-05-09T13:54:02.591Z,27.80
2018-05-09T13:58:58.542Z,28.00
2018-05-09T14:01:25.899Z,28.00
2018-05-09T14:03:53.389Z,29.30
2018-05-09T14:06:20.810Z,29.70
2018-05-09T14:08:48.215Z,29.90
2018-05-09T14:11:16.331Z,30.00
2018-05-09T14:13:43.938Z,30.00
2018-05-09T14:16:12.068Z,30.20
2018-05-09T14:18:39.446Z,29.70
2018-05-09T14:21:06.822Z,29.50
2018-05-09T14:23:34.231Z,29.60
2018-05-09T14:26:01.783Z,29.30
2018-05-09T14:28:29.149Z,27.80
2018-05-09T14:30:56.505Z,29.00
2018-05-09T14:33:23.953Z,29.10
2018-05-09T14:35:51.393Z,29.20
2018-05-09T14:38:18.790Z,28.60
2018-05-09T14:40:46.312Z,28.10
2018-05-09T14:43:13.687Z,28.70
2018-05-09T14:45:41.058Z,28.50
2018-05-09T14:48:08.647Z,28.10
2018-05-09T14:50:36.827Z,25.90
2018-05-09T14:53:05.209Z,27.60
2018-05-09T14:55:32.603Z,28.30
2018-05-09T14:57:59.971Z,28.40
2018-05-09T15:00:27.463Z,28.60
2018-05-09T15:02:55.782Z,28.80
2018-05-09T15:05:23.167Z,29.10
2018-05-09T15:07:51.606Z,29.30
2018-05-09T15:10:19.026Z,29.50
2018-05-09T15:12:47.157Z,29.60
2018-05-09T15:15:14.636Z,29.60
2018-05-09T15:17:42.083Z,29.60
2018-05-09T15:20:09.529Z,29.60
2018-05-09T15:22:37.046Z,29.70
2018-05-09T15:25:04.613Z,29.70
2018-05-09T15:27:31.995Z,29.90
2018-05-09T15:29:59.527Z,30.00
2018-05-09T15:32:26.918Z,30.00
2018-05-09T15:34:54.370Z,29.50
2018-05-09T15:37:21.883Z,30.00
2018-05-09T15:39:49.387Z,30.00
2018-05-09T15:42:17.027Z,30.10
2018-05-09T15:44:44.453Z,30.20
2018-05-09T15:47:11.930Z,30.20
2018-05-09T15:49:39.346Z,30.30
2018-05-09T15:52:06.779Z,30.30
2018-05-09T15:54:34.794Z,30.00
2018-05-09T15:57:02.957Z,29.90
2018-05-09T15:59:30.377Z,29.90
2018-05-09T16:01:57.872Z,30.00
2018-05-09T16:04:26.030Z,30.70
2018-05-09T16:06:53.508Z,30.60
2018-05-09T16:09:20.902Z,31.00
2018-05-09T16:11:49.183Z,30.70
2018-05-09T16:14:16.714Z,30.90
2018-05-09T16:16:44.131Z,31.30
2018-05-09T16:19:11.519Z,31.40
2018-05-09T16:21:39.610Z,31.40
2018-05-09T16:24:07.727Z,31.60
2018-05-09T16:29:03.407Z,32.80
2018-05-09T16:31:31.502Z,32.70
2018-05-09T16:33:59.673Z,32.60
2018-05-09T16:36:27.027Z,32.00
2018-05-09T16:38:54.504Z,32.50
2018-05-09T16:43:50.882Z,32.50
2018-05-09T16:46:19.058Z,32.40
2018-05-09T16:48:46.439Z,32.30
2018-05-09T16:51:13.720Z,32.30
2018-05-09T16:53:41.044Z,32.20
2018-05-09T16:56:08.461Z,32.10
2018-05-09T16:58:35.909Z,32.10
2018-05-09T17:01:03.554Z,32.00
2018-05-09T17:03:30.919Z,31.90
2018-05-09T17:05:58.530Z,32.10
2018-05-09T17:08:25.943Z,32.00
2018-05-09T17:10:53.340Z,32.30
2018-05-09T17:13:20.693Z,32.10
2018-05-09T17:15:48.892Z,32.00
2018-05-09T17:18:16.215Z,32.20
2018-05-09T17:20:43.626Z,32.30
2018-05-09T17:23:11.856Z,32.30
2018-05-09T17:25:39.308Z,32.20
2018-05-09T17:28:07.540Z,32.20
2018-05-09T17:30:35.013Z,32.30
2018-05-09T17:33:02.317Z,32.40
2018-05-09T17:35:29.709Z,32.20
2018-05-09T17:37:57.935Z,32.40
2018-05-09T17:40:25.303Z,32.30
2018-05-09T17:42:52.739Z,32.50
2018-05-09T17:45:20.346Z,32.50
2018-05-09T17:47:47.782Z,32.40
2018-05-09T17:50:15.326Z,32.50
2018-05-09T17:52:42.755Z,31.90
2018-05-09T17:55:10.250Z,32.40
2018-05-09T17:57:37.599Z,32.50
2018-05-09T18:00:04.888Z,32.40
2018-05-09T18:02:32.246Z,32.50
2018-05-09T18:04:59.605Z,32.50
2018-05-09T18:07:27.152Z,32.50
2018-05-09T18:09:55.626Z,32.20
2018-05-09T18:12:23.131Z,30.40
2018-05-09T18:14:50.665Z,32.80
2018-05-09T18:17:18.155Z,32.90
2018-05-09T18:19:45.711Z,33.00
2018-05-09T18:22:13.107Z,29.90
2018-05-09T18:24:41.221Z,30.70
2018-05-09T18:27:08.704Z,33.40
2018-05-09T18:29:36.074Z,33.50
2018-05-09T18:32:03.569Z,33.40
2018-05-09T18:34:31.055Z,33.30
2018-05-09T18:36:59.279Z,33.30
2018-05-09T18:39:27.588Z,33.60
2018-05-09T18:41:55.798Z,30.90
2018-05-09T18:44:23.306Z,32.50
2018-05-09T18:46:51.459Z,31.30
2018-05-09T18:49:18.893Z,32.50
2018-05-09T18:51:48.074Z,30.20
2018-05-09T18:54:15.616Z,32.50
2018-05-09T18:56:42.973Z,32.70
2018-05-09T18:59:10.455Z,32.20
2018-05-09T19:01:37.960Z,31.90
2018-05-09T19:04:05.284Z,31.80
2018-05-09T19:06:32.729Z,31.50
2018-05-09T19:09:00.874Z,31.50
2018-05-09T19:11:28.358Z,31.60
2018-05-09T19:13:55.767Z,31.20
2018-05-09T19:16:23.971Z,31.80
2018-05-09T19:18:51.357Z,32.00
2018-05-09T19:21:18.734Z,32.40
2018-05-09T19:23:46.169Z,32.50
2018-05-09T19:26:13.579Z,32.60
2018-05-09T19:28:41.793Z,33.00
2018-05-09T19:31:09.111Z,32.80
2018-05-09T19:33:36.515Z,33.20
2018-05-09T19:36:03.947Z,32.20
2018-05-09T19:38:31.408Z,30.80
2018-05-09T19:40:59.211Z,32.60
2018-05-09T19:43:26.664Z,33.40
2018-05-09T19:45:55.790Z,33.70
2018-05-09T19:48:23.945Z,34.00
2018-05-09T19:50:51.340Z,34.10
2018-05-09T19:53:18.649Z,33.90
2018-05-09T19:55:46.690Z,33.50
2018-05-09T19:58:13.971Z,34.00
2018-05-09T20:00:42.046Z,34.00
2018-05-09T20:03:10.209Z,34.20
2018-05-09T20:05:37.622Z,33.70
2018-05-09T20:08:05.095Z,32.80
2018-05-09T20:10:33.191Z,33.90
2018-05-09T20:13:00.603Z,34.20
2018-05-09T20:15:28.099Z,33.90
2018-05-09T20:17:55.474Z,29.80
2018-05-09T20:20:22.821Z,33.10
2018-05-09T20:22:51.014Z,31.10
2018-05-09T20:25:18.446Z,31.40
2018-05-09T20:27:46.507Z,32.60
2018-05-09T20:30:20.400Z,33.10
2018-05-09T20:32:47.807Z,34.30
2018-05-09T20:35:15.139Z,34.60
2018-05-09T20:37:42.502Z,34.30
2018-05-09T20:42:38.217Z,34.30
2018-05-09T20:45:05.662Z,34.20
2018-05-09T20:47:33.027Z,32.40
2018-05-09T20:50:00.475Z,32.10
2018-05-09T20:52:28.635Z,34.40
2018-05-09T20:54:56.007Z,33.80
2018-05-09T20:57:24.101Z,32.80
2018-05-09T20:59:52.251Z,33.20
2018-05-09T21:02:20.312Z,34.90
2018-05-09T21:04:47.777Z,34.30
2018-05-09T21:07:15.192Z,34.70
2018-05-09T21:09:42.559Z,35.80
2018-05-09T21:12:09.994Z,36.80
2018-05-09T21:14:37.444Z,35.40
2018-05-09T21:17:04.707Z,34.50
2018-05-09T21:19:32.084Z,35.10
2018-05-09T21:21:59.360Z,35.00
2018-05-09T21:24:26.698Z,35.50
2018-05-09T21:26:54.060Z,35.70
2018-05-09T21:29:21.472Z,34.50
2018-05-09T21:31:48.882Z,35.00
2018-05-09T21:34:17.007Z,37.50
2018-05-09T21:36:44.362Z,37.00
2018-05-09T21:39:11.680Z,36.20
2018-05-09T21:41:39.088Z,36.20
2018-05-09T21:44:06.447Z,35.00
2018-05-09T21:46:33.848Z,33.50
2018-05-09T21:49:01.907Z,34.60
2018-05-09T21:51:29.398Z,34.80
2018-05-09T21:53:56.688Z,36.00
2018-05-09T21:56:24.062Z,36.70
2018-05-09T21:58:51.531Z,36.20
2018-05-09T22:03:49.982Z,35.90
2018-05-09T22:08:45.681Z,37.20
2018-05-09T22:13:42.282Z,37.80
2018-05-09T22:16:09.879Z,36.80
2018-05-09T22:18:37.507Z,36.70
2018-05-09T22:21:04.816Z,36.10
2018-05-09T22:23:32.367Z,37.70
2018-05-09T22:25:59.686Z,39.70
2018-05-09T22:28:27.044Z,40.30
2018-05-09T22:33:22.626Z,38.90
2018-05-09T22:38:18.179Z,38.70
2018-05-09T22:40:45.535Z,38.20
2018-05-09T22:43:12.842Z,37.10
2018-05-09T22:45:40.263Z,37.80
2018-05-09T22:50:36.706Z,37.60
2018-05-09T22:55:32.396Z,35.50
2018-05-09T22:58:00.402Z,37.50
2018-05-09T23:00:27.892Z,37.50
2018-05-09T23:05:23.738Z,36.30
2018-05-09T23:07:51.176Z,35.30
2018-05-09T23:10:18.654Z,35.00
2018-05-09T23:12:46.732Z,36.20
2018-05-09T23:15:14.144Z,37.10
2018-05-09T23:20:10.611Z,38.10
2018-05-09T23:27:34.739Z,36.40
2018-05-09T23:30:02.134Z,35.80
2018-05-09T23:32:30.271Z,36.80
2018-05-09T23:34:57.700Z,37.60
2018-05-09T23:37:25.821Z,38.00
2018-05-09T23:42:22.748Z,37.10
2018-05-09T23:44:50.882Z,37.00
2018-05-09T23:47:19.026Z,37.50
2018-05-09T23:49:47.220Z,37.50
2018-05-09T23:52:15.381Z,37.70
